createdAt,value
2023-04-12T00:00:46.292Z,87899.00
2023-04-12T00:01:46.270Z,87899.00
2023-04-12T00:02:46.363Z,87895.00
2023-04-12T00:03:46.281Z,87895.00
2023-04-12T00:04:46.298Z,87891.00
2023-04-12T00:05:46.242Z,87889.00
2023-04-12T00:06:46.272Z,87885.00
2023-04-12T00:07:46.288Z,87879.00
2023-04-12T00:08:46.262Z,87879.00
2023-04-12T00:09:46.261Z,87875.00
2023-04-12T00:10:46.264Z,87875.00
2023-04-12T00:11:46.285Z,87873.00
2023-04-12T00:12:46.301Z,87870.00
2023-04-12T00:13:46.297Z,87866.00
2023-04-12T00:14:46.295Z,87864.00
2023-04-12T00:15:46.417Z,87862.00
2023-04-12T00:16:46.305Z,87862.00
2023-04-12T00:17:46.351Z,87858.00
2023-04-12T00:18:46.315Z,87858.00
2023-04-12T00:19:46.352Z,87854.00
2023-04-12T00:20:46.398Z,87856.00
2023-04-12T00:21:46.403Z,87854.00
2023-04-12T00:22:46.403Z,87854.00
2023-04-12T00:23:46.404Z,87852.00
2023-04-12T00:24:46.418Z,87850.00
2023-04-12T00:25:46.440Z,87846.00
2023-04-12T00:26:46.442Z,87846.00
2023-04-12T00:27:46.467Z,87844.00
2023-04-12T00:28:46.442Z,87844.00
2023-04-12T00:29:46.462Z,87844.00
2023-04-12T00:30:46.472Z,87842.00
2023-04-12T00:31:46.564Z,87840.00
2023-04-12T00:32:46.501Z,87840.00
2023-04-12T00:33:46.479Z,87838.00
2023-04-12T00:34:46.481Z,87838.00
2023-04-12T00:35:46.667Z,87832.00
2023-04-12T00:36:46.484Z,87832.00
2023-04-12T00:37:46.501Z,87828.00
2023-04-12T00:38:46.513Z,87830.00
2023-04-12T00:39:46.522Z,87832.00
2023-04-12T00:40:46.517Z,87830.00
2023-04-12T00:41:46.565Z,87830.00
2023-04-12T00:42:46.526Z,87828.00
2023-04-12T00:43:46.533Z,87828.00
2023-04-12T00:44:46.560Z,87828.00
2023-04-12T00:45:46.558Z,87828.00
2023-04-12T00:46:46.654Z,87828.00
2023-04-12T00:47:46.639Z,87825.00
2023-04-12T00:48:46.572Z,87823.00
2023-04-12T00:49:46.578Z,87823.00
2023-04-12T00:50:46.602Z,87821.00
2023-04-12T00:51:46.601Z,87819.00
2023-04-12T00:52:46.584Z,87819.00
2023-04-12T00:53:46.588Z,87821.00
2023-04-12T00:54:46.603Z,87819.00
2023-04-12T00:55:46.614Z,87815.00
2023-04-12T00:56:46.595Z,87817.00
2023-04-12T00:57:46.598Z,87817.00
2023-04-12T00:58:46.610Z,87815.00
2023-04-12T00:59:46.601Z,87811.00
2023-04-12T01:00:46.649Z,87807.00
2023-04-12T01:01:46.669Z,87807.00
2023-04-12T01:02:46.796Z,87807.00
2023-04-12T01:03:46.719Z,87807.00
2023-04-12T01:04:46.629Z,87805.00
2023-04-12T01:05:46.678Z,87805.00
2023-04-12T01:06:46.688Z,87803.00
2023-04-12T01:07:46.667Z,87805.00
2023-04-12T01:08:46.675Z,87801.00
2023-04-12T01:09:46.691Z,87797.00
2023-04-12T01:10:46.694Z,87795.00
2023-04-12T01:11:46.692Z,87795.00
2023-04-12T01:12:46.698Z,87793.00
2023-04-12T01:13:46.671Z,87791.00
2023-04-12T01:14:46.665Z,87793.00
2023-04-12T01:15:46.640Z,87793.00
2023-04-12T01:16:46.707Z,87793.00
2023-04-12T01:17:46.640Z,87793.00
2023-04-12T01:18:46.534Z,87793.00
2023-04-12T01:19:46.504Z,87791.00
2023-04-12T01:20:46.476Z,87797.00
2023-04-12T01:21:46.458Z,87793.00
2023-04-12T01:22:46.429Z,87793.00
2023-04-12T01:23:46.401Z,87789.00
2023-04-12T01:24:46.365Z,87791.00
2023-04-12T01:25:46.379Z,87781.00
2023-04-12T01:26:46.322Z,87783.00
2023-04-12T01:27:46.289Z,87781.00
2023-04-12T01:28:46.269Z,87781.00
2023-04-12T01:29:46.236Z,87779.00
2023-04-12T01:30:46.205Z,87781.00
2023-04-12T01:31:46.233Z,87775.00
2023-04-12T01:32:46.183Z,87771.00
2023-04-12T01:33:46.123Z,87771.00
2023-04-12T01:34:46.111Z,87768.00
2023-04-12T01:35:46.170Z,87762.00
2023-04-12T01:36:46.127Z,87760.00
2023-04-12T01:37:46.154Z,87760.00
2023-04-12T01:38:46.151Z,87758.00
2023-04-12T01:39:53.093Z,87758.00
2023-04-12T01:40:46.139Z,87758.00
2023-04-12T01:41:46.095Z,87754.00
2023-04-12T01:42:46.077Z,87752.00
2023-04-12T01:43:46.060Z,87752.00
2023-04-12T01:44:46.023Z,87750.00
2023-04-12T01:45:46.011Z,87752.00
2023-04-12T01:46:45.971Z,87752.00
2023-04-12T01:47:45.988Z,87754.00
2023-04-12T01:48:45.929Z,87752.00
2023-04-12T01:49:45.890Z,87750.00
2023-04-12T01:50:45.874Z,87748.00
2023-04-12T01:51:45.855Z,87746.00
2023-04-12T01:52:45.811Z,87744.00
2023-04-12T01:53:45.777Z,87744.00
2023-04-12T01:54:45.761Z,87746.00
2023-04-12T01:55:45.766Z,87746.00
2023-04-12T01:56:45.720Z,87746.00
2023-04-12T01:57:45.689Z,87746.00
2023-04-12T01:58:45.643Z,87742.00
2023-04-12T01:59:45.637Z,87740.00
2023-04-12T02:00:45.676Z,87736.00
2023-04-12T02:01:45.620Z,87736.00
2023-04-12T02:02:45.667Z,87738.00
2023-04-12T02:03:45.662Z,87736.00
2023-04-12T02:04:45.513Z,87738.00
2023-04-12T02:05:45.486Z,87738.00
2023-04-12T02:06:45.472Z,87740.00
2023-04-12T02:07:45.447Z,87736.00
2023-04-12T02:08:45.426Z,87736.00
2023-04-12T02:09:45.399Z,87738.00
2023-04-12T02:10:45.382Z,87736.00
2023-04-12T02:11:45.360Z,87736.00
2023-04-12T02:12:45.373Z,87736.00
2023-04-12T02:13:45.322Z,87732.00
2023-04-12T02:14:45.303Z,87732.00
2023-04-12T02:15:45.275Z,87732.00
2023-04-12T02:16:45.293Z,87730.00
2023-04-12T02:17:45.263Z,87734.00
2023-04-12T02:18:45.207Z,87734.00
2023-04-12T02:19:45.205Z,87734.00
2023-04-12T02:20:45.206Z,87732.00
2023-04-12T02:21:45.161Z,87734.00
2023-04-12T02:22:45.127Z,87730.00
2023-04-12T02:23:45.113Z,87728.00
2023-04-12T02:24:45.105Z,87728.00
2023-04-12T02:25:45.111Z,87732.00
2023-04-12T02:26:45.120Z,87730.00
2023-04-12T02:27:45.158Z,87730.00
2023-04-12T02:28:45.150Z,87732.00
2023-04-12T02:29:45.151Z,87734.00
2023-04-12T02:30:45.189Z,87734.00
2023-04-12T02:31:45.185Z,87736.00
2023-04-12T02:32:45.254Z,87736.00
2023-04-12T02:33:45.192Z,87736.00
2023-04-12T02:34:45.209Z,87736.00
2023-04-12T02:35:45.286Z,87738.00
2023-04-12T02:36:45.227Z,87738.00
2023-04-12T02:37:45.254Z,87740.00
2023-04-12T02:38:45.259Z,87740.00
2023-04-12T02:39:45.267Z,87740.00
2023-04-12T02:40:45.284Z,87738.00
2023-04-12T02:41:45.273Z,87738.00
2023-04-12T02:42:45.292Z,87740.00
2023-04-12T02:43:45.307Z,87742.00
2023-04-12T02:44:45.305Z,87742.00
2023-04-12T02:45:45.364Z,87742.00
2023-04-12T02:46:45.350Z,87744.00
2023-04-12T02:47:45.364Z,87748.00
2023-04-12T02:48:45.346Z,87750.00
2023-04-12T02:49:45.362Z,87750.00
2023-04-12T02:50:45.399Z,87750.00
2023-04-12T02:51:45.402Z,87748.00
2023-04-12T02:52:45.410Z,87750.00
2023-04-12T02:53:45.432Z,87750.00
2023-04-12T02:54:45.427Z,87754.00
2023-04-12T02:55:45.459Z,87756.00
2023-04-12T02:56:45.436Z,87756.00
2023-04-12T02:57:45.416Z,87760.00
2023-04-12T02:58:45.394Z,87762.00
2023-04-12T02:59:45.388Z,87764.00
2023-04-12T03:00:45.372Z,87762.00
2023-04-12T03:01:45.408Z,87762.00
2023-04-12T03:02:45.421Z,87764.00
2023-04-12T03:03:45.371Z,87762.00
2023-04-12T03:04:45.284Z,87762.00
2023-04-12T03:05:45.270Z,87766.00
2023-04-12T03:06:45.247Z,87766.00
2023-04-12T03:07:45.233Z,87766.00
2023-04-12T03:08:45.201Z,87766.00
2023-04-12T03:09:45.180Z,87764.00
2023-04-12T03:10:45.164Z,87766.00
2023-04-12T03:11:45.149Z,87766.00
2023-04-12T03:12:45.139Z,87768.00
2023-04-12T03:13:45.120Z,87766.00
2023-04-12T03:14:45.111Z,87766.00
2023-04-12T03:15:45.107Z,87764.00
2023-04-12T03:16:45.056Z,87766.00
2023-04-12T03:17:45.141Z,87762.00
2023-04-12T03:18:44.992Z,87764.00
2023-04-12T03:19:44.986Z,87762.00
2023-04-12T03:20:47.349Z,87766.00
2023-04-12T03:21:44.942Z,87766.00
2023-04-12T03:22:44.921Z,87768.00
2023-04-12T03:23:44.898Z,87766.00
2023-04-12T03:24:44.884Z,87768.00
2023-04-12T03:25:44.880Z,87768.00
2023-04-12T03:26:44.854Z,87770.00
2023-04-12T03:27:44.849Z,87766.00
2023-04-12T03:28:44.801Z,87766.00
2023-04-12T03:29:44.789Z,87764.00
2023-04-12T03:30:44.813Z,87764.00
2023-04-12T03:31:44.751Z,87764.00
2023-04-12T03:32:44.758Z,87762.00
2023-04-12T03:33:44.706Z,87760.00
2023-04-12T03:34:44.707Z,87762.00
2023-04-12T03:35:44.748Z,87764.00
2023-04-12T03:36:44.695Z,87768.00
2023-04-12T03:37:44.652Z,87770.00
2023-04-12T03:38:44.622Z,87770.00
2023-04-12T03:39:44.602Z,87766.00
2023-04-12T03:40:44.606Z,87764.00
2023-04-12T03:41:44.603Z,87766.00
2023-04-12T03:42:44.556Z,87764.00
2023-04-12T03:43:44.533Z,87762.00
2023-04-12T03:44:44.505Z,87768.00
2023-04-12T03:45:44.509Z,87764.00
2023-04-12T03:46:44.522Z,87764.00
2023-04-12T03:47:44.492Z,87770.00
2023-04-12T03:48:44.443Z,87770.00
2023-04-12T03:49:46.263Z,87771.00
2023-04-12T03:50:45.417Z,87764.00
2023-04-12T03:51:44.392Z,87764.00
2023-04-12T03:52:44.383Z,87762.00
2023-04-12T03:53:44.357Z,87762.00
2023-04-12T03:54:44.331Z,87758.00
2023-04-12T03:55:44.308Z,87756.00
2023-04-12T03:56:46.037Z,87756.00
2023-04-12T03:57:44.300Z,87754.00
2023-04-12T03:58:44.282Z,87754.00
2023-04-12T03:59:44.271Z,87752.00
2023-04-12T04:00:44.226Z,87750.00
2023-04-12T04:01:44.270Z,87750.00
2023-04-12T04:02:44.305Z,87750.00
2023-04-12T04:03:44.662Z,87750.00
2023-04-12T04:04:44.196Z,87750.00
2023-04-12T04:05:44.152Z,87750.00
2023-04-12T04:06:44.129Z,87748.00
2023-04-12T04:07:44.107Z,87746.00
2023-04-12T04:08:44.073Z,87744.00
2023-04-12T04:09:44.089Z,87744.00
2023-04-12T04:10:44.104Z,87746.00
2023-04-12T04:11:44.120Z,87746.00
2023-04-12T04:12:44.141Z,87746.00
2023-04-12T04:13:44.172Z,87746.00
2023-04-12T04:14:44.359Z,87746.00
2023-04-12T04:15:44.153Z,87746.00
2023-04-12T04:16:44.201Z,87744.00
2023-04-12T04:17:44.225Z,87744.00
2023-04-12T04:18:44.190Z,87748.00
2023-04-12T04:19:44.194Z,87746.00
2023-04-12T04:20:44.237Z,87746.00
2023-04-12T04:21:44.224Z,87744.00
2023-04-12T04:22:44.235Z,87746.00
2023-04-12T04:23:44.246Z,87744.00
2023-04-12T04:24:44.262Z,87742.00
2023-04-12T04:25:44.261Z,87738.00
2023-04-12T04:26:44.282Z,87738.00
2023-04-12T04:27:44.304Z,87736.00
2023-04-12T04:28:44.305Z,87734.00
2023-04-12T04:29:44.385Z,87732.00
2023-04-12T04:30:44.312Z,87728.00
2023-04-12T04:31:44.325Z,87726.00
2023-04-12T04:32:44.386Z,87724.00
2023-04-12T04:33:44.320Z,87728.00
2023-04-12T04:34:44.347Z,87726.00
2023-04-12T04:35:44.418Z,87728.00
2023-04-12T04:36:44.361Z,87726.00
2023-04-12T04:37:44.376Z,87722.00
2023-04-12T04:38:44.390Z,87720.00
2023-04-12T04:39:44.386Z,87720.00
2023-04-12T04:40:44.413Z,87722.00
2023-04-12T04:41:44.435Z,87722.00
2023-04-12T04:42:44.504Z,87724.00
2023-04-12T04:43:44.531Z,87722.00
2023-04-12T04:44:44.598Z,87716.00
2023-04-12T04:45:44.688Z,87710.00
2023-04-12T04:46:44.619Z,87710.00
2023-04-12T04:47:44.672Z,87706.00
2023-04-12T04:48:44.656Z,87710.00
2023-04-12T04:49:44.658Z,87708.00
2023-04-12T04:50:44.667Z,87708.00
2023-04-12T04:51:44.688Z,87708.00
2023-04-12T04:52:44.704Z,87708.00
2023-04-12T04:53:44.720Z,87706.00
2023-04-12T04:54:44.696Z,87704.00
2023-04-12T04:55:44.705Z,87704.00
2023-04-12T04:56:44.736Z,87702.00
2023-04-12T04:57:44.732Z,87706.00
2023-04-12T04:58:44.738Z,87704.00
2023-04-12T04:59:44.753Z,87706.00
2023-04-12T05:00:44.766Z,87706.00
2023-04-12T05:01:44.954Z,87706.00
2023-04-12T05:02:44.841Z,87706.00
2023-04-12T05:03:44.880Z,87706.00
2023-04-12T05:04:44.797Z,87706.00
2023-04-12T05:05:44.796Z,87708.00
2023-04-12T05:06:44.808Z,87702.00
2023-04-12T05:07:44.815Z,87702.00
2023-04-12T05:08:44.848Z,87700.00
2023-04-12T05:09:44.886Z,87698.00
2023-04-12T05:10:44.921Z,87700.00
2023-04-12T05:11:44.966Z,87704.00
2023-04-12T05:12:45.000Z,87708.00
2023-04-12T05:13:45.029Z,87708.00
2023-04-12T05:14:48.003Z,87706.00
2023-04-12T05:15:45.031Z,87706.00
2023-04-12T05:16:45.050Z,87706.00
2023-04-12T05:17:45.072Z,87706.00
2023-04-12T05:18:44.979Z,87706.00
2023-04-12T05:19:44.971Z,87706.00
2023-04-12T05:20:44.935Z,87704.00
2023-04-12T05:21:44.917Z,87702.00
2023-04-12T05:22:44.909Z,87698.00
2023-04-12T05:23:44.878Z,87700.00
2023-04-12T05:24:44.885Z,87700.00
2023-04-12T05:25:44.851Z,87698.00
2023-04-12T05:26:44.845Z,87696.00
2023-04-12T05:27:44.864Z,87692.00
2023-04-12T05:28:44.790Z,87694.00
2023-04-12T05:29:44.776Z,87694.00
2023-04-12T05:30:44.804Z,87694.00
2023-04-12T05:31:44.745Z,87696.00
2023-04-12T05:32:44.764Z,87690.00
2023-04-12T05:33:44.723Z,87694.00
2023-04-12T05:34:44.686Z,87694.00
2023-04-12T05:35:44.699Z,87688.00
2023-04-12T05:36:44.708Z,87688.00
2023-04-12T05:37:44.627Z,87684.00
2023-04-12T05:38:44.617Z,87692.00
2023-04-12T05:39:44.597Z,87684.00
2023-04-12T05:40:44.553Z,87686.00
2023-04-12T05:41:44.600Z,87682.00
2023-04-12T05:42:44.528Z,87688.00
2023-04-12T05:43:44.496Z,87686.00
2023-04-12T05:44:44.472Z,87688.00
2023-04-12T05:45:44.455Z,87686.00
2023-04-12T05:46:44.481Z,87684.00
2023-04-12T05:47:44.438Z,87682.00
2023-04-12T05:48:44.418Z,87676.00
2023-04-12T05:49:44.455Z,87686.00
2023-04-12T05:50:44.347Z,87686.00
2023-04-12T05:51:44.311Z,87684.00
2023-04-12T05:52:44.314Z,87680.00
2023-04-12T05:53:44.290Z,87676.00
2023-04-12T05:54:44.246Z,87678.00
2023-04-12T05:55:44.251Z,87674.00
2023-04-12T05:56:44.255Z,87674.00
2023-04-12T05:57:44.195Z,87676.00
2023-04-12T05:58:44.224Z,87676.00
2023-04-12T05:59:44.161Z,87674.00
2023-04-12T06:00:44.149Z,87672.00
2023-04-12T06:01:44.103Z,87670.00
2023-04-12T06:02:44.235Z,87672.00
2023-04-12T06:03:44.117Z,87668.00
2023-04-12T06:04:50.139Z,87672.00
2023-04-12T06:05:45.078Z,87668.00
2023-04-12T06:06:43.940Z,87670.00
2023-04-12T06:07:43.905Z,87670.00
2023-04-12T06:08:43.897Z,87672.00
2023-04-12T06:09:43.863Z,87666.00
2023-04-12T06:10:43.831Z,87664.00
2023-04-12T06:11:43.802Z,87662.00
2023-04-12T06:12:43.781Z,87656.00
2023-04-12T06:13:43.748Z,87656.00
2023-04-12T06:14:43.712Z,87658.00
2023-04-12T06:15:43.702Z,87649.00
2023-04-12T06:16:43.657Z,87651.00
2023-04-12T06:17:43.668Z,87643.00
2023-04-12T06:18:43.593Z,87649.00
2023-04-12T06:19:43.551Z,87643.00
2023-04-12T06:20:43.541Z,87639.00
2023-04-12T06:21:43.491Z,87635.00
2023-04-12T06:22:43.477Z,87635.00
2023-04-12T06:23:43.500Z,87637.00
2023-04-12T06:24:43.453Z,87633.00
2023-04-12T06:25:43.424Z,87629.00
2023-04-12T06:26:43.499Z,87631.00
2023-04-12T06:27:43.356Z,87627.00
2023-04-12T06:28:43.283Z,87627.00
2023-04-12T06:29:43.246Z,87629.00
2023-04-12T06:30:43.216Z,87629.00
2023-04-12T06:31:43.246Z,87627.00
2023-04-12T06:32:43.177Z,87627.00
2023-04-12T06:33:43.203Z,87625.00
2023-04-12T06:34:43.092Z,87625.00
2023-04-12T06:35:43.083Z,87623.00
2023-04-12T06:36:43.017Z,87621.00
2023-04-12T06:37:42.984Z,87623.00
2023-04-12T06:38:42.948Z,87617.00
2023-04-12T06:39:42.923Z,87619.00
2023-04-12T06:40:42.958Z,87611.00
2023-04-12T06:41:42.859Z,87611.00
2023-04-12T06:42:42.859Z,87607.00
2023-04-12T06:43:42.864Z,87615.00
2023-04-12T06:44:42.835Z,87611.00
2023-04-12T06:45:42.820Z,87603.00
2023-04-12T06:46:42.964Z,87603.00
2023-04-12T06:47:42.825Z,87600.00
2023-04-12T06:48:42.750Z,87603.00
2023-04-12T06:49:42.868Z,87611.00
2023-04-12T06:50:42.690Z,87613.00
2023-04-12T06:51:42.677Z,87601.00
2023-04-12T06:52:42.841Z,87598.00
2023-04-12T06:53:42.661Z,87607.00
2023-04-12T06:54:42.630Z,87601.00
2023-04-12T06:55:42.601Z,87596.00
2023-04-12T06:56:42.568Z,87598.00
2023-04-12T06:57:42.535Z,87594.00
2023-04-12T06:58:42.509Z,87596.00
2023-04-12T06:59:42.475Z,87590.00
2023-04-12T07:00:42.582Z,87592.00
2023-04-12T07:01:43.619Z,87594.00
2023-04-12T07:02:42.619Z,87594.00
2023-04-12T07:03:42.493Z,87590.00
2023-04-12T07:04:42.346Z,87594.00
2023-04-12T07:05:42.347Z,87592.00
2023-04-12T07:06:42.351Z,87588.00
2023-04-12T07:07:42.317Z,87598.00
2023-04-12T07:08:42.321Z,87584.00
2023-04-12T07:09:42.295Z,87582.00
2023-04-12T07:10:42.261Z,87580.00
2023-04-12T07:11:42.229Z,87578.00
2023-04-12T07:12:42.229Z,87580.00
2023-04-12T07:13:42.224Z,87574.00
2023-04-12T07:14:44.092Z,87578.00
2023-04-12T07:15:42.281Z,87572.00
2023-04-12T07:16:42.298Z,87570.00
2023-04-12T07:17:42.252Z,87576.00
2023-04-12T07:18:42.225Z,87582.00
2023-04-12T07:19:42.305Z,87566.00
2023-04-12T07:20:42.157Z,87566.00
2023-04-12T07:21:42.243Z,87570.00
2023-04-12T07:22:42.133Z,87564.00
2023-04-12T07:23:42.038Z,87570.00
2023-04-12T07:24:42.024Z,87572.00
2023-04-12T07:25:42.066Z,87556.00
2023-04-12T07:26:41.945Z,87560.00
2023-04-12T07:27:41.908Z,87553.00
2023-04-12T07:28:41.916Z,87547.00
2023-04-12T07:29:41.848Z,87543.00
2023-04-12T07:30:41.822Z,87545.00
2023-04-12T07:31:41.850Z,87545.00
2023-04-12T07:32:41.833Z,87545.00
2023-04-12T07:33:43.164Z,87543.00
2023-04-12T07:34:41.801Z,87543.00
2023-04-12T07:35:41.710Z,87545.00
2023-04-12T07:36:41.633Z,87543.00
2023-04-12T07:37:41.798Z,87537.00
2023-04-12T07:38:41.557Z,87541.00
2023-04-12T07:39:41.535Z,87545.00
2023-04-12T07:40:41.464Z,87539.00
2023-04-12T07:41:41.435Z,87535.00
2023-04-12T07:42:41.429Z,87545.00
2023-04-12T07:43:41.357Z,87541.00
2023-04-12T07:44:41.338Z,87537.00
2023-04-12T07:45:41.283Z,87537.00
2023-04-12T07:46:41.291Z,87543.00
2023-04-12T07:47:41.264Z,87541.00
2023-04-12T07:48:41.233Z,87535.00
2023-04-12T07:49:41.136Z,87541.00
2023-04-12T07:50:41.115Z,87537.00
2023-04-12T07:51:41.069Z,87531.00
2023-04-12T07:52:41.042Z,87533.00
2023-04-12T07:53:41.021Z,87535.00
2023-04-12T07:54:41.013Z,87543.00
2023-04-12T07:55:41.176Z,87547.00
2023-04-12T07:56:40.993Z,87543.00
2023-04-12T07:57:40.960Z,87547.00
2023-04-12T07:58:40.926Z,87537.00
2023-04-12T07:59:40.916Z,87541.00
2023-04-12T08:00:41.033Z,87545.00
2023-04-12T08:01:40.862Z,87539.00
2023-04-12T08:02:40.909Z,87543.00
2023-04-12T08:03:40.857Z,87541.00
2023-04-12T08:04:40.736Z,87537.00
2023-04-12T08:05:40.741Z,87539.00
2023-04-12T08:06:40.655Z,87539.00
2023-04-12T08:07:40.639Z,87537.00
2023-04-12T08:08:40.653Z,87527.00
2023-04-12T08:09:40.658Z,87541.00
2023-04-12T08:10:40.665Z,87535.00
2023-04-12T08:11:40.699Z,87529.00
2023-04-12T08:12:40.729Z,87531.00
2023-04-12T08:13:40.811Z,87531.00
2023-04-12T08:14:41.048Z,87533.00
2023-04-12T08:15:40.758Z,87535.00
2023-04-12T08:16:40.877Z,87531.00
2023-04-12T08:17:40.795Z,87529.00
2023-04-12T08:18:40.764Z,87527.00
2023-04-12T08:19:40.662Z,87529.00
2023-04-12T08:20:40.627Z,87533.00
2023-04-12T08:21:40.572Z,87535.00
2023-04-12T08:22:40.537Z,87541.00
2023-04-12T08:23:40.649Z,87539.00
2023-04-12T08:24:40.538Z,87543.00
2023-04-12T08:25:40.460Z,87539.00
2023-04-12T08:26:41.268Z,87539.00
2023-04-12T08:27:40.449Z,87543.00
2023-04-12T08:28:40.347Z,87543.00
2023-04-12T08:29:40.413Z,87543.00
2023-04-12T08:30:40.415Z,87543.00
2023-04-12T08:31:40.482Z,87547.00
2023-04-12T08:32:40.752Z,87549.00
2023-04-12T08:33:40.508Z,87541.00
2023-04-12T08:34:40.500Z,87549.00
2023-04-12T08:35:40.536Z,87553.00
2023-04-12T08:36:40.596Z,87554.00
2023-04-12T08:37:40.562Z,87556.00
2023-04-12T08:38:45.818Z,87558.00
2023-04-12T08:39:41.565Z,87558.00
2023-04-12T08:40:40.518Z,87558.00
2023-04-12T08:41:40.479Z,87566.00
2023-04-12T08:42:40.438Z,87568.00
2023-04-12T08:43:40.429Z,87566.00
2023-04-12T08:44:40.375Z,87574.00
2023-04-12T08:45:40.331Z,87568.00
2023-04-12T08:46:40.316Z,87566.00
2023-04-12T08:47:40.274Z,87568.00
2023-04-12T08:48:40.204Z,87574.00
2023-04-12T08:49:40.212Z,87564.00
2023-04-12T08:50:40.137Z,87562.00
2023-04-12T08:51:40.086Z,87560.00
2023-04-12T08:52:40.050Z,87558.00
2023-04-12T08:53:39.994Z,87558.00
2023-04-12T08:54:39.975Z,87566.00
2023-04-12T08:55:39.943Z,87560.00
2023-04-12T08:56:39.888Z,87558.00
2023-04-12T08:57:39.827Z,87556.00
2023-04-12T08:58:39.790Z,87558.00
2023-04-12T08:59:39.785Z,87558.00
2023-04-12T09:00:39.734Z,87556.00
2023-04-12T09:01:39.825Z,87553.00
2023-04-12T09:02:39.780Z,87554.00
2023-04-12T09:03:39.960Z,87551.00
2023-04-12T09:04:39.696Z,87549.00
2023-04-12T09:05:39.573Z,87551.00
2023-04-12T09:06:39.536Z,87549.00
2023-04-12T09:07:39.496Z,87549.00
2023-04-12T09:08:39.466Z,87549.00
2023-04-12T09:09:39.423Z,87547.00
2023-04-12T09:10:39.427Z,87553.00
2023-04-12T09:11:39.372Z,87554.00
2023-04-12T09:12:39.320Z,87551.00
2023-04-12T09:13:39.302Z,87547.00
2023-04-12T09:14:39.262Z,87547.00
2023-04-12T09:15:39.223Z,87547.00
2023-04-12T09:16:39.303Z,87547.00
2023-04-12T09:17:39.280Z,87543.00
2023-04-12T09:18:39.146Z,87539.00
2023-04-12T09:19:39.090Z,87539.00
2023-04-12T09:20:39.097Z,87539.00
2023-04-12T09:21:39.026Z,87541.00
2023-04-12T09:22:38.984Z,87539.00
2023-04-12T09:23:38.950Z,87543.00
2023-04-12T09:24:38.956Z,87543.00
2023-04-12T09:25:38.908Z,87541.00
2023-04-12T09:26:38.884Z,87535.00
2023-04-12T09:27:38.805Z,87535.00
2023-04-12T09:28:38.761Z,87529.00
2023-04-12T09:29:38.792Z,87533.00
2023-04-12T09:30:38.839Z,87535.00
2023-04-12T09:31:38.786Z,87529.00
2023-04-12T09:32:38.714Z,87527.00
2023-04-12T09:33:38.641Z,87525.00
2023-04-12T09:34:38.592Z,87529.00
2023-04-12T09:35:38.621Z,87527.00
2023-04-12T09:36:38.503Z,87523.00
2023-04-12T09:37:38.519Z,87517.00
2023-04-12T09:38:38.646Z,87515.00
2023-04-12T09:39:40.113Z,87509.00
2023-04-12T09:40:38.468Z,87513.00
2023-04-12T09:41:38.353Z,87511.00
2023-04-12T09:42:38.410Z,87513.00
2023-04-12T09:43:38.287Z,87507.00
2023-04-12T09:44:38.261Z,87505.00
2023-04-12T09:45:38.247Z,87505.00
2023-04-12T09:46:38.212Z,87505.00
2023-04-12T09:47:38.168Z,87507.00
2023-04-12T09:48:38.106Z,87505.00
2023-04-12T09:49:38.213Z,87505.00
2023-04-12T09:50:38.066Z,87501.00
2023-04-12T09:51:38.063Z,87509.00
2023-04-12T09:52:38.165Z,87503.00
2023-04-12T09:53:38.051Z,87507.00
2023-04-12T09:54:38.142Z,87511.00
2023-04-12T09:55:37.956Z,87513.00
2023-04-12T09:56:37.984Z,87513.00
2023-04-12T09:57:38.017Z,87511.00
2023-04-12T09:58:37.981Z,87513.00
2023-04-12T09:59:38.052Z,87511.00
2023-04-12T10:00:38.042Z,87505.00
2023-04-12T10:01:38.106Z,87507.00
2023-04-12T10:02:38.193Z,87499.00
2023-04-12T10:03:38.176Z,87496.00
2023-04-12T10:04:38.101Z,87501.00
2023-04-12T10:05:38.060Z,87505.00
2023-04-12T10:06:38.032Z,87505.00
2023-04-12T10:07:38.038Z,87499.00
2023-04-12T10:08:38.052Z,87494.00
2023-04-12T10:09:38.066Z,87494.00
2023-04-12T10:10:38.082Z,87498.00
2023-04-12T10:11:38.099Z,87499.00
2023-04-12T10:12:38.138Z,87498.00
2023-04-12T10:13:38.058Z,87494.00
2023-04-12T10:14:38.039Z,87494.00
2023-04-12T10:15:38.087Z,87492.00
2023-04-12T10:16:38.146Z,87490.00
2023-04-12T10:17:38.185Z,87486.00
2023-04-12T10:18:38.137Z,87486.00
2023-04-12T10:19:38.067Z,87490.00
2023-04-12T10:20:38.070Z,87484.00
2023-04-12T10:21:37.998Z,87488.00
2023-04-12T10:22:37.950Z,87486.00
2023-04-12T10:23:37.979Z,87482.00
2023-04-12T10:24:37.920Z,87474.00
2023-04-12T10:25:37.828Z,87478.00
2023-04-12T10:26:37.800Z,87482.00
2023-04-12T10:27:37.763Z,87486.00
2023-04-12T10:28:37.824Z,87492.00
2023-04-12T10:29:37.713Z,87488.00
2023-04-12T10:30:37.669Z,87492.00
2023-04-12T10:31:37.756Z,87490.00
2023-04-12T10:32:37.727Z,87486.00
2023-04-12T10:33:37.634Z,87478.00
2023-04-12T10:34:37.568Z,87478.00
2023-04-12T10:35:37.616Z,87476.00
2023-04-12T10:36:37.634Z,87472.00
2023-04-12T10:37:37.604Z,87474.00
2023-04-12T10:38:37.569Z,87470.00
2023-04-12T10:39:37.573Z,87474.00
2023-04-12T10:40:37.504Z,87468.00
2023-04-12T10:41:37.494Z,87466.00
2023-04-12T10:42:37.379Z,87460.00
2023-04-12T10:43:37.348Z,87462.00
2023-04-12T10:44:37.327Z,87462.00
2023-04-12T10:45:37.362Z,87464.00
2023-04-12T10:46:37.540Z,87470.00
2023-04-12T10:47:37.443Z,87464.00
2023-04-12T10:48:37.427Z,87462.00
2023-04-12T10:49:37.460Z,87451.00
2023-04-12T10:50:37.498Z,87451.00
2023-04-12T10:51:37.555Z,87451.00
2023-04-12T10:52:37.557Z,87447.00
2023-04-12T10:53:37.663Z,87441.00
2023-04-12T10:54:37.557Z,87447.00
2023-04-12T10:55:37.530Z,87439.00
2023-04-12T10:56:37.513Z,87439.00
2023-04-12T10:57:37.430Z,87438.00
2023-04-12T10:58:37.383Z,87434.00
2023-04-12T10:59:47.263Z,87438.00
2023-04-12T11:00:38.423Z,87432.00
2023-04-12T11:01:38.916Z,87438.00
2023-04-12T11:02:37.321Z,87434.00
2023-04-12T11:03:37.304Z,87434.00
2023-04-12T11:04:37.347Z,87438.00
2023-04-12T11:05:37.153Z,87439.00
2023-04-12T11:06:37.091Z,87438.00
2023-04-12T11:07:37.061Z,87438.00
2023-04-12T11:08:37.036Z,87438.00
2023-04-12T11:09:37.089Z,87439.00
2023-04-12T11:10:37.246Z,87430.00
2023-04-12T11:11:37.155Z,87422.00
2023-04-12T11:12:37.176Z,87420.00
2023-04-12T11:13:37.261Z,87418.00
2023-04-12T11:14:37.254Z,87416.00
2023-04-12T11:15:37.305Z,87416.00
2023-04-12T11:16:37.325Z,87414.00
2023-04-12T11:17:37.997Z,87420.00
2023-04-12T11:18:37.473Z,87422.00
2023-04-12T11:19:37.453Z,87418.00
2023-04-12T11:20:37.455Z,87414.00
2023-04-12T11:21:37.350Z,87410.00
2023-04-12T11:22:37.393Z,87418.00
2023-04-12T11:23:37.396Z,87416.00
2023-04-12T11:24:37.465Z,87418.00
2023-04-12T11:25:37.611Z,87412.00
2023-04-12T11:26:37.599Z,87412.00
2023-04-12T11:27:37.606Z,87412.00
2023-04-12T11:28:37.528Z,87418.00
2023-04-12T11:29:37.434Z,87420.00
2023-04-12T11:30:37.409Z,87420.00
2023-04-12T11:31:37.426Z,87420.00
2023-04-12T11:32:37.383Z,87408.00
2023-04-12T11:33:37.354Z,87410.00
2023-04-12T11:34:37.258Z,87410.00
2023-04-12T11:35:37.187Z,87414.00
2023-04-12T11:36:37.132Z,87414.00
2023-04-12T11:37:37.087Z,87402.00
2023-04-12T11:38:37.046Z,87396.00
2023-04-12T11:39:37.009Z,87391.00
2023-04-12T11:40:37.002Z,87389.00
2023-04-12T11:41:37.060Z,87389.00
2023-04-12T11:42:37.072Z,87400.00
2023-04-12T11:43:37.181Z,87402.00
2023-04-12T11:44:54.466Z,87394.00